createdAt,value
2022-12-11T00:00:26.568Z,96.97
2022-12-11T00:02:31.342Z,96.92
2022-12-11T00:04:36.144Z,97.35
2022-12-11T00:06:40.836Z,97.70
2022-12-11T00:08:45.770Z,98.03
2022-12-11T00:10:50.761Z,97.97
2022-12-11T00:12:55.448Z,98.39
2022-12-11T00:15:00.217Z,98.39
2022-12-11T00:17:05.223Z,98.46
2022-12-11T00:19:12.475Z,98.90
2022-12-11T00:21:17.624Z,99.01
2022-12-11T00:23:23.113Z,98.92
2022-12-11T00:25:27.728Z,99.01
2022-12-11T00:27:32.605Z,99.13
2022-12-11T00:29:37.348Z,99.00
2022-12-11T00:31:42.310Z,98.29
2022-12-11T00:33:47.524Z,97.63
2022-12-11T00:35:52.170Z,97.16
2022-12-11T00:37:57.395Z,97.16
2022-12-11T00:40:02.146Z,96.62
2022-12-11T00:42:07.766Z,96.48
2022-12-11T00:44:12.443Z,96.02
2022-12-11T00:46:17.238Z,95.76
2022-12-11T00:48:22.654Z,94.86
2022-12-11T00:50:27.393Z,95.25
2022-12-11T00:52:32.035Z,95.05
2022-12-11T00:54:36.839Z,95.05
2022-12-11T00:56:41.526Z,95.02
2022-12-11T00:58:46.721Z,94.97
2022-12-11T01:00:51.537Z,95.01
2022-12-11T01:02:56.231Z,94.82
2022-12-11T01:05:00.987Z,93.75
2022-12-11T01:07:05.744Z,92.29
2022-12-11T01:09:10.381Z,92.47
2022-12-11T01:11:16.815Z,91.83
2022-12-11T01:13:21.717Z,91.90
2022-12-11T01:15:28.158Z,91.35
2022-12-11T01:17:32.957Z,90.26
2022-12-11T01:19:37.560Z,90.82
2022-12-11T01:21:42.233Z,91.70
2022-12-11T01:23:49.597Z,90.84
2022-12-11T01:25:54.335Z,90.96
2022-12-11T01:27:58.963Z,91.93
2022-12-11T01:30:04.026Z,92.23
2022-12-11T01:32:08.672Z,92.76
2022-12-11T01:34:13.895Z,92.83
2022-12-11T01:36:21.334Z,93.25
2022-12-11T01:38:29.115Z,92.28
2022-12-11T01:40:33.907Z,92.15
2022-12-11T01:42:38.999Z,92.14
2022-12-11T01:45:27.301Z,91.81
2022-12-11T01:47:32.151Z,90.95
2022-12-11T01:49:39.166Z,90.51
2022-12-11T01:51:49.224Z,88.82
2022-12-11T01:53:59.523Z,88.14
2022-12-11T01:56:04.789Z,88.20
2022-12-11T01:58:10.326Z,87.45
2022-12-11T02:00:16.897Z,85.89
2022-12-11T02:02:26.325Z,85.53
2022-12-11T02:04:31.841Z,85.35
2022-12-11T02:06:39.934Z,85.02
2022-12-11T02:08:44.596Z,84.38
2022-12-11T02:11:05.143Z,84.24
2022-12-11T02:13:16.580Z,84.78
2022-12-11T02:15:30.487Z,84.24
2022-12-11T02:17:40.765Z,84.33
2022-12-11T02:19:58.022Z,84.95
2022-12-11T02:22:09.020Z,84.80
2022-12-11T02:24:32.588Z,84.61
2022-12-11T02:26:54.204Z,84.35
2022-12-11T02:29:00.986Z,84.66
2022-12-11T02:31:12.223Z,84.42
2022-12-11T02:33:21.693Z,84.21
2022-12-11T02:35:30.406Z,83.68
2022-12-11T02:37:39.118Z,83.32
2022-12-11T02:39:45.989Z,82.77
2022-12-11T02:41:51.945Z,82.57
2022-12-11T02:43:58.661Z,82.59
2022-12-11T02:46:07.512Z,82.38
2022-12-11T02:48:14.247Z,82.22
2022-12-11T02:50:21.232Z,81.80
2022-12-11T02:52:28.345Z,81.65
2022-12-11T02:54:37.439Z,81.89
2022-12-11T02:56:46.464Z,81.30
2022-12-11T02:58:58.703Z,81.69
2022-12-11T03:01:03.690Z,81.01
2022-12-11T03:03:08.471Z,81.08
2022-12-11T03:05:14.593Z,80.13
2022-12-11T03:07:24.382Z,80.11
2022-12-11T03:09:29.178Z,80.30
2022-12-11T03:11:33.947Z,79.40
2022-12-11T03:13:39.252Z,79.82
2022-12-11T03:16:02.638Z,79.95
2022-12-11T03:18:15.603Z,79.95
2022-12-11T03:20:30.591Z,78.50
2022-12-11T03:22:40.768Z,77.65
2022-12-11T03:24:50.218Z,77.81
2022-12-11T03:27:00.973Z,77.87
2022-12-11T03:29:12.442Z,78.01
2022-12-11T03:31:22.300Z,77.52
2022-12-11T03:33:31.331Z,76.90
2022-12-11T03:35:38.951Z,76.79
2022-12-11T03:37:45.317Z,77.09
2022-12-11T03:39:52.874Z,77.17
2022-12-11T03:41:59.835Z,77.77
2022-12-11T03:44:05.200Z,77.42
2022-12-11T03:46:12.540Z,76.76
2022-12-11T03:48:18.773Z,76.81
2022-12-11T03:50:25.766Z,76.82
2022-12-11T03:52:32.040Z,76.91
2022-12-11T03:54:38.053Z,77.75
2022-12-11T03:56:45.219Z,77.23
2022-12-11T03:58:49.870Z,77.46
2022-12-11T04:00:54.565Z,76.78
2022-12-11T04:02:59.305Z,77.15
2022-12-11T04:05:04.188Z,77.18
2022-12-11T04:07:08.838Z,77.14
2022-12-11T04:09:13.560Z,76.36
2022-12-11T04:11:18.260Z,76.35
2022-12-11T04:13:23.038Z,76.30
2022-12-11T04:15:27.729Z,76.45
2022-12-11T04:17:34.163Z,76.81
2022-12-11T04:19:41.970Z,77.42
2022-12-11T04:21:46.670Z,77.69
2022-12-11T04:23:51.367Z,77.99
2022-12-11T04:26:02.947Z,78.33
2022-12-11T04:28:07.646Z,79.16
2022-12-11T04:30:15.638Z,79.11
2022-12-11T04:32:20.332Z,79.26
2022-12-11T04:34:25.030Z,79.87
2022-12-11T04:36:29.706Z,80.44
2022-12-11T04:38:34.746Z,80.78
2022-12-11T04:40:39.390Z,80.65
2022-12-11T04:42:44.619Z,81.33
2022-12-11T04:44:49.216Z,82.32
2022-12-11T04:46:53.862Z,82.74
2022-12-11T04:48:58.941Z,83.36
2022-12-11T04:51:03.958Z,83.90
2022-12-11T04:53:08.705Z,84.67
2022-12-11T04:55:13.931Z,84.86
2022-12-11T04:57:18.776Z,84.95
2022-12-11T04:59:23.513Z,85.40
2022-12-11T05:01:28.159Z,85.87
2022-12-11T05:03:32.838Z,86.26
2022-12-11T05:05:37.499Z,86.67
2022-12-11T05:07:42.551Z,86.93
2022-12-11T05:09:47.279Z,87.13
2022-12-11T05:11:51.885Z,87.34
2022-12-11T05:13:56.477Z,88.04
2022-12-11T05:16:03.362Z,89.18
2022-12-11T05:18:08.070Z,89.65
2022-12-11T05:20:13.283Z,90.27
2022-12-11T05:22:18.985Z,91.02
2022-12-11T05:24:23.659Z,92.22
2022-12-11T05:26:28.544Z,92.93
2022-12-11T05:28:35.849Z,93.41
2022-12-11T05:30:40.387Z,93.57
2022-12-11T05:32:44.999Z,93.59
2022-12-11T05:34:50.019Z,93.95
2022-12-11T05:36:54.592Z,94.04
2022-12-11T05:39:00.535Z,94.44
2022-12-11T05:41:06.696Z,93.68
2022-12-11T05:43:11.344Z,93.60
2022-12-11T05:45:15.989Z,93.30
2022-12-11T05:47:20.579Z,93.53
2022-12-11T05:49:30.675Z,93.95
2022-12-11T05:51:38.883Z,94.08
2022-12-11T05:53:44.441Z,94.08
2022-12-11T05:55:49.138Z,93.74
2022-12-11T05:57:53.715Z,93.72
2022-12-11T05:59:58.362Z,93.55
2022-12-11T06:02:03.066Z,93.59
2022-12-11T06:04:09.933Z,93.45
2022-12-11T06:06:15.674Z,93.44
2022-12-11T06:08:20.469Z,93.58
2022-12-11T06:10:25.104Z,93.46
2022-12-11T06:12:29.890Z,92.91
2022-12-11T06:14:34.622Z,92.57
2022-12-11T06:16:39.724Z,92.40
2022-12-11T06:18:45.627Z,91.98
2022-12-11T06:20:50.364Z,90.72
2022-12-11T06:22:54.997Z,89.93
2022-12-11T06:24:59.648Z,89.29
2022-12-11T06:27:04.326Z,89.49
2022-12-11T06:29:12.523Z,89.58
2022-12-11T06:31:18.697Z,88.98
2022-12-11T06:33:23.254Z,88.49
2022-12-11T06:35:27.913Z,87.61
2022-12-11T06:37:32.574Z,86.53
2022-12-11T06:39:37.183Z,84.51
2022-12-11T06:41:41.819Z,83.88
2022-12-11T06:43:46.603Z,83.29
2022-12-11T06:45:51.510Z,80.56
2022-12-11T06:47:56.179Z,80.41
2022-12-11T06:50:00.824Z,79.34
2022-12-11T06:52:06.932Z,78.48
2022-12-11T06:54:11.612Z,78.35
2022-12-11T06:56:16.814Z,78.85
2022-12-11T06:58:21.472Z,77.63
2022-12-11T07:00:26.138Z,78.11
2022-12-11T07:02:30.795Z,78.01
2022-12-11T07:04:35.550Z,77.30
2022-12-11T07:06:40.256Z,77.53
2022-12-11T07:08:44.846Z,78.10
2022-12-11T07:10:49.402Z,78.02
2022-12-11T07:12:55.570Z,77.21
2022-12-11T07:15:00.226Z,78.13
2022-12-11T07:17:04.822Z,77.09
2022-12-11T07:19:09.520Z,77.39
2022-12-11T07:21:15.175Z,78.26
2022-12-11T07:23:20.172Z,78.80
2022-12-11T07:25:24.899Z,78.94
2022-12-11T07:27:29.567Z,79.27
2022-12-11T07:29:34.521Z,79.69
2022-12-11T07:31:39.188Z,78.78
2022-12-11T07:33:44.680Z,78.61
2022-12-11T07:35:49.468Z,77.80
2022-12-11T07:37:54.135Z,77.57
2022-12-11T07:39:58.875Z,78.31
2022-12-11T07:42:03.648Z,77.91
2022-12-11T07:44:08.611Z,76.36
2022-12-11T07:46:16.022Z,76.68
2022-12-11T07:48:20.691Z,76.53
2022-12-11T07:50:25.387Z,76.20
2022-12-11T07:52:30.100Z,76.45
2022-12-11T07:54:34.720Z,77.01
2022-12-11T07:56:43.693Z,76.22
2022-12-11T07:58:49.609Z,76.14
2022-12-11T08:00:54.404Z,75.31
2022-12-11T08:02:59.941Z,75.47
2022-12-11T08:05:05.196Z,75.15
2022-12-11T08:07:09.810Z,74.94
2022-12-11T08:09:20.967Z,74.84
2022-12-11T08:11:26.525Z,74.69
2022-12-11T08:13:31.494Z,74.18
2022-12-11T08:15:36.922Z,74.63
2022-12-11T08:17:41.603Z,74.19
2022-12-11T08:19:49.213Z,74.13
2022-12-11T08:21:53.900Z,73.66
2022-12-11T08:23:58.668Z,73.60
2022-12-11T08:26:05.585Z,73.33
2022-12-11T08:28:10.186Z,73.99
2022-12-11T08:30:15.636Z,74.24
2022-12-11T08:32:20.520Z,72.97
2022-12-11T08:34:25.262Z,73.51
2022-12-11T08:36:30.312Z,73.99
2022-12-11T08:38:35.453Z,73.18
2022-12-11T08:40:40.185Z,72.48
2022-12-11T08:42:45.059Z,71.51
2022-12-11T08:44:49.751Z,71.59
2022-12-11T08:46:57.173Z,72.19
2022-12-11T08:49:01.833Z,71.75
2022-12-11T08:51:08.663Z,71.99
2022-12-11T08:53:13.360Z,72.29
2022-12-11T08:55:18.030Z,70.65
2022-12-11T08:57:24.106Z,70.61
2022-12-11T08:59:28.916Z,71.05
2022-12-11T09:01:33.632Z,70.30
2022-12-11T09:03:39.283Z,69.72
2022-12-11T09:05:44.725Z,70.29
2022-12-11T09:07:49.406Z,70.52
2022-12-11T09:09:55.651Z,69.79
2022-12-11T09:12:00.332Z,69.65
2022-12-11T09:14:08.008Z,70.03
2022-12-11T09:16:14.819Z,70.59
2022-12-11T09:18:19.502Z,71.35
2022-12-11T09:20:24.201Z,70.42
2022-12-11T09:22:29.061Z,69.28
2022-12-11T09:24:33.795Z,69.61
2022-12-11T09:26:38.707Z,69.32
2022-12-11T09:28:47.377Z,70.11
2022-12-11T09:30:52.777Z,69.79
2022-12-11T09:32:57.441Z,69.57
2022-12-11T09:35:02.069Z,69.85
2022-12-11T09:37:06.760Z,69.01
2022-12-11T09:39:13.628Z,69.81
2022-12-11T09:41:35.907Z,69.70
2022-12-11T09:43:46.562Z,69.87
2022-12-11T09:45:53.142Z,70.07
2022-12-11T09:47:58.429Z,69.77
2022-12-11T09:50:12.995Z,70.11
2022-12-11T09:52:24.455Z,70.85
2022-12-11T09:54:29.287Z,70.65
2022-12-11T09:56:39.309Z,70.40
2022-12-11T09:58:54.380Z,69.69
2022-12-11T10:01:03.272Z,68.07
2022-12-11T10:03:34.102Z,67.46
2022-12-11T10:05:47.213Z,66.77
2022-12-11T10:07:58.988Z,66.00
2022-12-11T10:10:16.656Z,66.10
2022-12-11T10:12:32.726Z,65.43
2022-12-11T10:14:49.698Z,64.61
2022-12-11T10:16:59.674Z,64.79
2022-12-11T10:19:05.027Z,65.43
2022-12-11T10:21:12.349Z,64.89
2022-12-11T10:23:22.337Z,64.86
2022-12-11T10:25:31.224Z,64.19
2022-12-11T10:27:38.867Z,63.61
2022-12-11T10:29:44.148Z,62.78
2022-12-11T10:31:55.742Z,62.31
2022-12-11T10:34:02.969Z,62.61
2022-12-11T10:36:13.228Z,63.37
2022-12-11T10:38:21.734Z,63.10
2022-12-11T10:40:29.210Z,62.53
2022-12-11T10:42:33.886Z,63.30
2022-12-11T10:44:38.928Z,62.99
2022-12-11T10:46:43.811Z,62.52
2022-12-11T10:48:50.540Z,62.51
2022-12-11T10:51:01.541Z,63.09
2022-12-11T10:53:06.841Z,62.55
2022-12-11T10:55:21.313Z,62.46
2022-12-11T10:57:31.289Z,62.71
2022-12-11T10:59:44.155Z,62.54
2022-12-11T11:01:49.595Z,62.73
2022-12-11T11:04:02.439Z,63.60
2022-12-11T11:06:15.314Z,63.74
2022-12-11T11:08:21.993Z,64.06
2022-12-11T11:10:26.751Z,64.11
2022-12-11T11:12:37.047Z,63.62
2022-12-11T11:14:41.753Z,63.67
2022-12-11T11:16:49.080Z,63.56
2022-12-11T11:18:55.750Z,64.11
2022-12-11T11:21:01.110Z,64.14
2022-12-11T11:23:14.890Z,63.65
2022-12-11T11:25:21.359Z,63.59
2022-12-11T11:27:34.148Z,63.69
2022-12-11T11:29:38.996Z,63.53
2022-12-11T11:31:43.684Z,63.28
2022-12-11T11:33:54.943Z,63.80
2022-12-11T11:36:01.539Z,63.64
2022-12-11T11:38:17.732Z,63.29
2022-12-11T11:40:27.123Z,63.58
2022-12-11T11:42:43.247Z,63.29
2022-12-11T11:44:57.671Z,63.16
2022-12-11T11:47:09.083Z,63.75
2022-12-11T11:49:21.594Z,63.77
2022-12-11T11:51:30.654Z,63.80
2022-12-11T11:53:38.927Z,62.83
2022-12-11T11:55:53.487Z,62.55
2022-12-11T11:58:02.823Z,61.72
2022-12-11T12:00:16.856Z,61.32
2022-12-11T12:02:22.097Z,61.59
2022-12-11T12:04:30.165Z,60.86
2022-12-11T12:06:52.436Z,61.43
2022-12-11T12:09:08.351Z,61.62
2022-12-11T12:11:22.569Z,61.64
2022-12-11T12:13:52.263Z,61.53
2022-12-11T12:15:59.369Z,62.24
2022-12-11T12:18:14.913Z,62.61
2022-12-11T12:20:28.261Z,62.53
2022-12-11T12:22:51.412Z,62.77
2022-12-11T12:25:06.877Z,63.10
2022-12-11T12:27:50.563Z,61.50
2022-12-11T12:29:56.030Z,61.73
2022-12-11T12:32:09.619Z,61.40
2022-12-11T12:34:26.019Z,61.84
2022-12-11T12:36:39.238Z,62.49
2022-12-11T12:38:53.976Z,63.08
2022-12-11T12:41:09.522Z,62.59
2022-12-11T12:43:30.276Z,62.45
2022-12-11T12:45:44.341Z,63.24
2022-12-11T12:47:53.548Z,63.07
2022-12-11T12:50:01.461Z,62.68
2022-12-11T12:52:12.548Z,62.74
2022-12-11T12:54:19.913Z,62.54
2022-12-11T12:56:27.419Z,63.22
2022-12-11T12:58:40.975Z,63.00
2022-12-11T13:00:46.241Z,61.63
2022-12-11T13:02:52.051Z,61.42
2022-12-11T13:05:02.889Z,61.44
2022-12-11T13:07:17.790Z,61.57
2022-12-11T13:09:24.380Z,61.90
2022-12-11T13:11:35.909Z,62.04
2022-12-11T13:13:43.377Z,62.02
2022-12-11T13:15:48.160Z,61.95
2022-12-11T13:17:53.128Z,61.60
2022-12-11T13:20:17.461Z,61.54
2022-12-11T13:22:25.274Z,61.43
2022-12-11T13:24:32.296Z,61.08
2022-12-11T13:26:37.226Z,61.76
2022-12-11T13:28:58.614Z,61.49
2022-12-11T13:31:31.966Z,61.43
2022-12-11T13:33:42.929Z,61.25
2022-12-11T13:35:48.020Z,61.12
2022-12-11T13:37:53.681Z,61.55
2022-12-11T13:39:59.106Z,61.99
2022-12-11T13:42:06.799Z,61.79
2022-12-11T13:44:22.347Z,62.00
2022-12-11T13:46:32.072Z,62.47
2022-12-11T13:48:40.961Z,63.05
2022-12-11T13:50:46.599Z,63.27
2022-12-11T13:53:00.279Z,63.32
2022-12-11T13:55:23.041Z,63.11
2022-12-11T13:57:28.248Z,63.24
2022-12-11T13:59:36.086Z,63.40
2022-12-11T14:01:41.773Z,64.05
2022-12-11T14:03:53.252Z,63.88
2022-12-11T14:05:58.375Z,63.40
2022-12-11T14:08:09.162Z,63.24
2022-12-11T14:10:21.205Z,63.13
2022-12-11T14:12:26.396Z,62.85
2022-12-11T14:14:40.397Z,62.85
2022-12-11T14:16:49.340Z,62.51
2022-12-11T14:19:03.526Z,61.47
2022-12-11T14:21:18.315Z,61.39
2022-12-11T14:23:25.569Z,61.48
2022-12-11T14:25:30.971Z,61.49
2022-12-11T14:27:36.844Z,61.85
2022-12-11T14:29:42.620Z,62.08
2022-12-11T14:31:47.823Z,61.14
2022-12-11T14:33:55.987Z,60.73
2022-12-11T14:36:03.324Z,61.27
2022-12-11T14:38:17.042Z,61.27
2022-12-11T14:40:28.574Z,61.68
2022-12-11T14:42:38.264Z,61.00
2022-12-11T14:44:50.547Z,61.50
2022-12-11T14:47:00.981Z,61.30
2022-12-11T14:49:16.919Z,61.83
2022-12-11T14:51:23.724Z,61.77
2022-12-11T14:53:33.810Z,62.12
2022-12-11T14:55:40.375Z,62.19
2022-12-11T14:57:47.700Z,61.67
2022-12-11T14:59:55.429Z,61.50
2022-12-11T15:02:03.367Z,61.52
2022-12-11T15:04:22.694Z,61.40
2022-12-11T15:06:30.287Z,61.38
2022-12-11T15:08:36.377Z,61.95
2022-12-11T15:10:57.795Z,62.39
2022-12-11T15:13:03.578Z,62.41
2022-12-11T15:15:17.882Z,61.62
2022-12-11T15:17:27.326Z,61.46
2022-12-11T15:19:34.902Z,61.32
2022-12-11T15:21:40.032Z,62.01
2022-12-11T15:23:53.110Z,62.36
2022-12-11T15:26:00.803Z,62.13
2022-12-11T15:28:06.249Z,61.90
2022-12-11T15:30:27.652Z,62.49
2022-12-11T15:32:32.520Z,62.79
2022-12-11T15:34:45.087Z,62.88
2022-12-11T15:36:49.993Z,63.07
2022-12-11T15:38:55.087Z,63.04
2022-12-11T15:41:01.410Z,62.97
2022-12-11T15:43:07.108Z,63.39
2022-12-11T15:45:18.517Z,63.45
2022-12-11T15:47:26.023Z,63.50
2022-12-11T15:49:30.981Z,63.60
2022-12-11T15:51:41.160Z,63.78
2022-12-11T15:53:48.018Z,63.92
2022-12-11T15:55:53.807Z,64.19
2022-12-11T15:58:02.260Z,64.79
2022-12-11T16:00:13.728Z,64.90
2022-12-11T16:02:20.292Z,64.96
2022-12-11T16:04:25.084Z,65.55
2022-12-11T16:06:29.928Z,65.83
2022-12-11T16:08:34.871Z,65.77
2022-12-11T16:10:40.333Z,65.41
2022-12-11T16:12:45.894Z,65.53
2022-12-11T16:14:51.137Z,65.52
2022-12-11T16:16:55.905Z,65.91
2022-12-11T16:19:01.051Z,66.28
2022-12-11T16:21:08.409Z,66.71
2022-12-11T16:23:14.366Z,67.05
2022-12-11T16:25:19.847Z,67.48
2022-12-11T16:27:25.983Z,67.52
2022-12-11T16:29:33.804Z,68.13
2022-12-11T16:31:39.159Z,68.11
2022-12-11T16:33:44.654Z,68.66
2022-12-11T16:35:49.804Z,69.15
2022-12-11T16:37:56.731Z,69.17
2022-12-11T16:40:01.498Z,69.14
2022-12-11T16:42:07.725Z,68.55
2022-12-11T16:44:13.620Z,68.31
2022-12-11T16:46:23.466Z,67.36
2022-12-11T16:48:29.335Z,66.40
2022-12-11T16:50:35.204Z,66.65
2022-12-11T16:52:40.624Z,66.89
2022-12-11T16:54:45.450Z,66.82
2022-12-11T16:56:50.786Z,67.54
2022-12-11T16:58:56.940Z,68.69
2022-12-11T17:01:02.386Z,69.75
2022-12-11T17:03:07.994Z,70.50
2022-12-11T17:05:14.277Z,71.58
2022-12-11T17:07:19.493Z,71.80
2022-12-11T17:09:24.862Z,72.09
2022-12-11T17:11:32.431Z,72.73
2022-12-11T17:13:37.156Z,72.81
2022-12-11T17:15:43.751Z,73.59
2022-12-11T17:17:52.122Z,74.21
2022-12-11T17:19:58.184Z,74.71
2022-12-11T17:22:03.307Z,75.03
2022-12-11T17:24:10.828Z,75.80
2022-12-11T17:26:19.111Z,75.61
2022-12-11T17:28:24.792Z,76.31
2022-12-11T17:30:31.378Z,77.47
2022-12-11T17:32:39.714Z,78.18
2022-12-11T17:34:46.056Z,78.69
2022-12-11T17:36:52.355Z,79.28
2022-12-11T17:38:57.823Z,79.95
2022-12-11T17:41:07.954Z,80.45
2022-12-11T17:43:14.048Z,80.96
2022-12-11T17:45:19.877Z,81.75
2022-12-11T17:47:26.491Z,81.94
2022-12-11T17:49:31.891Z,82.07
2022-12-11T17:51:37.616Z,82.23
2022-12-11T17:53:43.233Z,82.58
2022-12-11T17:55:49.058Z,83.58
2022-12-11T17:57:54.667Z,83.44
2022-12-11T17:59:59.612Z,84.27
2022-12-11T18:02:05.072Z,84.40
2022-12-11T18:04:11.093Z,84.74
2022-12-11T18:06:18.151Z,84.29
2022-12-11T18:08:26.803Z,84.31
2022-12-11T18:10:38.255Z,84.72
2022-12-11T18:12:44.373Z,84.60
2022-12-11T18:14:50.354Z,85.09
2022-12-11T18:16:55.780Z,85.46
2022-12-11T18:19:01.316Z,85.80
2022-12-11T18:21:07.416Z,86.30
2022-12-11T18:23:13.200Z,86.56
2022-12-11T18:25:22.255Z,87.23
2022-12-11T18:27:29.591Z,87.44
2022-12-11T18:29:35.940Z,87.87
2022-12-11T18:31:43.398Z,88.01
2022-12-11T18:33:49.368Z,88.30
2022-12-11T18:35:55.927Z,88.85
2022-12-11T18:38:06.219Z,89.36
2022-12-11T18:40:13.301Z,88.89
2022-12-11T18:42:37.948Z,88.88
2022-12-11T18:44:43.862Z,88.71
2022-12-11T18:46:53.862Z,88.95
2022-12-11T18:48:59.586Z,88.77
2022-12-11T18:51:10.058Z,88.55
2022-12-11T18:53:22.033Z,88.68
2022-12-11T18:55:27.550Z,89.14
2022-12-11T18:57:34.498Z,89.13
2022-12-11T18:59:40.851Z,88.78
2022-12-11T19:01:50.643Z,89.08
2022-12-11T19:04:03.485Z,88.82
2022-12-11T19:06:14.202Z,89.27
2022-12-11T19:08:22.028Z,89.63
2022-12-11T19:10:28.984Z,89.71
2022-12-11T19:12:34.699Z,90.21
2022-12-11T19:14:41.752Z,90.61
2022-12-11T19:16:48.066Z,90.52
2022-12-11T19:18:56.397Z,90.26
2022-12-11T19:21:08.726Z,90.31
2022-12-11T19:23:20.915Z,90.50
2022-12-11T19:25:27.174Z,90.19
2022-12-11T19:27:34.416Z,90.25
2022-12-11T19:29:40.773Z,90.47
2022-12-11T19:31:48.123Z,90.93
2022-12-11T19:33:56.937Z,90.64
2022-12-11T19:36:08.593Z,91.00
2022-12-11T19:38:15.039Z,90.75
2022-12-11T19:40:21.999Z,90.54
2022-12-11T19:42:31.253Z,90.31
2022-12-11T19:44:39.722Z,89.76
2022-12-11T19:46:46.514Z,89.54
2022-12-11T19:48:53.605Z,89.74
2022-12-11T19:51:06.312Z,89.32
2022-12-11T19:53:19.074Z,88.98
2022-12-11T19:55:33.317Z,89.03
2022-12-11T19:57:39.369Z,88.36
2022-12-11T19:59:45.182Z,87.85
2022-12-11T20:01:51.710Z,86.98
2022-12-11T20:03:59.571Z,86.87
2022-12-11T20:06:08.785Z,86.76
2022-12-11T20:08:43.692Z,86.29
2022-12-11T20:10:54.939Z,86.61
2022-12-11T20:13:01.433Z,87.41
2022-12-11T20:15:09.122Z,87.23
2022-12-11T20:17:15.105Z,85.70
2022-12-11T20:19:22.724Z,85.41
2022-12-11T20:21:29.707Z,85.71
2022-12-11T20:23:37.073Z,85.69
2022-12-11T20:25:59.048Z,85.74
2022-12-11T20:28:08.626Z,85.42
2022-12-11T20:30:18.550Z,84.82
2022-12-11T20:32:23.524Z,84.77
2022-12-11T20:34:29.458Z,84.00
2022-12-11T20:36:34.773Z,83.95
2022-12-11T20:38:41.716Z,83.85
2022-12-11T20:40:50.481Z,83.35
2022-12-11T20:42:57.154Z,83.18
2022-12-11T20:45:05.630Z,83.40
2022-12-11T20:47:12.151Z,83.21
2022-12-11T20:49:18.069Z,83.47
2022-12-11T20:51:26.359Z,83.71
2022-12-11T20:53:32.495Z,82.89
2022-12-11T20:55:41.233Z,83.08
2022-12-11T20:57:47.332Z,82.90
2022-12-11T20:59:53.011Z,82.93
2022-12-11T21:01:58.589Z,82.76
2022-12-11T21:04:08.230Z,82.68
2022-12-11T21:06:19.742Z,82.65
2022-12-11T21:08:24.905Z,82.43
2022-12-11T21:10:30.007Z,82.53
2022-12-11T21:12:35.895Z,82.77
2022-12-11T21:14:42.966Z,82.64
2022-12-11T21:16:50.155Z,82.16
2022-12-11T21:18:57.003Z,82.11
2022-12-11T21:21:02.746Z,82.15
2022-12-11T21:23:08.543Z,82.19
2022-12-11T21:25:14.091Z,82.38
2022-12-11T21:27:20.895Z,82.55
2022-12-11T21:29:27.167Z,82.35
2022-12-11T21:31:32.447Z,82.34
2022-12-11T21:33:38.302Z,82.37
2022-12-11T21:35:43.457Z,82.18
2022-12-11T21:37:48.352Z,82.73
2022-12-11T21:39:56.411Z,83.05
2022-12-11T21:42:01.976Z,82.69
2022-12-11T21:46:32.051Z,81.24
2022-12-11T21:48:37.523Z,81.66
2022-12-11T21:50:42.783Z,82.06
2022-12-11T21:52:47.509Z,81.88
2022-12-11T21:54:52.196Z,81.96
2022-12-11T21:56:56.889Z,82.23
2022-12-11T21:59:01.746Z,82.27
2022-12-11T22:01:11.053Z,82.58
2022-12-11T22:03:15.870Z,81.70
2022-12-11T22:05:20.589Z,81.85
2022-12-11T22:07:25.210Z,81.60
2022-12-11T22:09:29.775Z,81.69
2022-12-11T22:11:35.204Z,81.51
2022-12-11T22:13:39.984Z,81.56
2022-12-11T22:15:44.699Z,81.51
2022-12-11T22:17:49.346Z,81.61
2022-12-11T22:19:54.073Z,81.79
2022-12-11T22:21:58.657Z,81.48
2022-12-11T22:24:03.791Z,81.30
2022-12-11T22:26:09.463Z,81.29
2022-12-11T22:28:14.240Z,81.14
2022-12-11T22:30:19.184Z,81.18
2022-12-11T22:32:26.184Z,81.57
2022-12-11T22:34:30.992Z,81.67
2022-12-11T22:36:35.581Z,81.73
2022-12-11T22:38:40.306Z,81.78
2022-12-11T22:40:44.976Z,81.96
2022-12-11T22:42:49.664Z,81.84
2022-12-11T22:44:54.297Z,81.74
2022-12-11T22:46:58.887Z,81.69
2022-12-11T22:49:03.520Z,81.69
2022-12-11T22:51:08.913Z,81.83
2022-12-11T22:53:13.794Z,81.94
2022-12-11T22:55:18.679Z,81.87
2022-12-11T22:57:23.458Z,81.73
2022-12-11T22:59:28.068Z,81.85
2022-12-11T23:01:33.229Z,82.01
2022-12-11T23:03:38.046Z,81.94
2022-12-11T23:05:42.813Z,81.83
2022-12-11T23:07:47.653Z,81.92
2022-12-11T23:09:52.464Z,82.02
2022-12-11T23:11:57.165Z,82.26
2022-12-11T23:14:03.996Z,82.27
2022-12-11T23:16:09.159Z,82.33
2022-12-11T23:18:13.820Z,82.56
2022-12-11T23:20:18.596Z,82.57
2022-12-11T23:22:23.234Z,83.06
2022-12-11T23:24:27.927Z,82.95
2022-12-11T23:26:33.177Z,83.05
2022-12-11T23:28:38.251Z,83.37
2022-12-11T23:30:42.986Z,83.42
2022-12-11T23:32:47.641Z,83.70
2022-12-11T23:34:52.297Z,83.52
2022-12-11T23:36:57.055Z,83.60
2022-12-11T23:39:01.819Z,83.56
2022-12-11T23:41:08.134Z,83.67
2022-12-11T23:43:12.842Z,83.96
2022-12-11T23:45:17.569Z,83.95
2022-12-11T23:47:22.181Z,84.10
2022-12-11T23:49:26.862Z,84.16
2022-12-11T23:51:31.652Z,83.93
2022-12-11T23:53:36.303Z,83.58
2022-12-11T23:55:44.112Z,83.47
2022-12-11T23:57:48.752Z,83.16
2022-12-11T23:59:53.398Z,82.87
